Time;durP1;ratioP1;P1;durP2;ratioP2;P2;SDS_P1;SDS_P2;PMS_P1;PMS_P2;Temp;Humidity;BMP_temperature;BMP_pressure;BME280_temperature;BME280_humidity;BME280_pressure;Samples;Min_cycle;Max_cycle;Signal;HPM_P1;HPM_P2
2022/07/05 00:01:11;;;;;;;5.82;5.32;;;20.60;99.90;;;;;;10297479;28;20125;-82
2022/07/05 00:06:11;;;;;;;6.68;5.80;;;20.40;99.90;;;;;;10316081;28;20093;-81
2022/07/05 00:11:12;;;;;;;7.82;5.88;;;20.20;99.90;;;;;;10294271;28;20105;-82
2022/07/05 00:16:12;;;;;;;6.93;5.40;;;20.10;99.90;;;;;;10287197;28;20150;-81
2022/07/05 00:21:13;;;;;;;7.90;5.57;;;20.00;99.90;;;;;;10301006;28;20275;-82
2022/07/05 00:26:14;;;;;;;6.07;5.43;;;19.90;99.90;;;;;;10307395;28;21839;-83
2022/07/05 00:31:15;;;;;;;6.03;5.43;;;19.80;99.90;;;;;;10302482;28;20074;-81
2022/07/05 00:36:15;;;;;;;7.30;5.75;;;19.80;99.90;;;;;;10294764;28;20035;-81
2022/07/05 00:41:16;;;;;;;5.95;5.10;;;19.70;99.90;;;;;;10306622;28;20141;-81
2022/07/05 00:46:16;;;;;;;6.35;5.18;;;19.50;99.90;;;;;;10287196;28;20130;-82
2022/07/05 00:51:18;;;;;;;6.20;5.35;;;19.40;99.90;;;;;;10302304;28;20038;-81
2022/07/05 00:56:19;;;;;;;7.00;5.60;;;19.50;99.90;;;;;;10295495;28;20041;-81
2022/07/05 01:01:20;;;;;;;8.85;5.65;;;19.40;99.90;;;;;;10295704;28;20130;-81
2022/07/05 01:06:20;;;;;;;8.32;5.82;;;19.30;99.90;;;;;;10301457;28;20404;-82
2022/07/05 01:11:21;;;;;;;7.35;6.03;;;19.30;99.90;;;;;;10314044;28;20045;-82
2022/07/05 01:16:22;;;;;;;8.70;5.60;;;19.30;99.90;;;;;;10299999;28;20678;-81
2022/07/05 01:21:25;;;;;;;8.95;6.20;;;19.30;99.90;;;;;;10310636;28;20058;-82
2022/07/05 01:26:26;;;;;;;7.63;5.88;;;19.30;99.90;;;;;;10316138;28;20030;-81
2022/07/05 01:31:26;;;;;;;7.10;5.93;;;19.30;99.90;;;;;;10304091;28;20030;-81
2022/07/05 01:36:27;;;;;;;6.07;5.32;;;19.30;99.90;;;;;;10306031;28;20033;-82
2022/07/05 01:41:28;;;;;;;9.27;6.57;;;19.40;99.90;;;;;;10307790;28;20034;-81
2022/07/05 01:46:33;;;;;;;6.43;5.32;;;19.40;99.90;;;;;;10311903;28;20113;-82
2022/07/05 01:51:39;;;;;;;8.25;6.15;;;19.40;99.90;;;;;;10301636;28;20033;-81
2022/07/05 01:56:39;;;;;;;9.63;8.63;;;19.50;99.90;;;;;;10315979;28;20031;-81
2022/07/05 02:01:40;;;;;;;9.95;8.45;;;19.30;99.90;;;;;;10307267;28;20030;-80
2022/07/05 02:06:41;;;;;;;11.25;10.05;;;19.10;99.90;;;;;;10303232;28;20117;-81
2022/07/05 02:11:41;;;;;;;13.60;10.85;;;18.90;99.90;;;;;;10309609;28;20031;-81
2022/07/05 02:16:42;;;;;;;15.27;10.80;;;18.70;99.90;;;;;;10302526;28;20637;-80
2022/07/05 02:21:42;;;;;;;12.68;10.98;;;18.50;99.90;;;;;;10296709;28;20473;-81
2022/07/05 02:26:43;;;;;;;11.40;10.30;;;18.50;99.90;;;;;;10312442;28;20022;-81
2022/07/05 02:31:43;;;;;;;12.85;10.55;;;18.50;99.90;;;;;;10308716;28;20482;-81
2022/07/05 02:36:44;;;;;;;13.30;10.82;;;18.40;99.90;;;;;;10295334;28;20022;-81
2022/07/05 02:41:45;;;;;;;13.13;11.00;;;18.50;99.90;;;;;;10292911;28;20117;-81
2022/07/05 02:46:45;;;;;;;15.55;12.20;;;18.40;99.90;;;;;;10302975;28;20031;-80
2022/07/05 02:51:46;;;;;;;15.52;10.85;;;18.20;99.90;;;;;;10292840;28;20026;-81
2022/07/05 02:56:46;;;;;;;12.38;10.18;;;18.20;99.90;;;;;;10293853;28;20156;-81
2022/07/05 03:01:47;;;;;;;12.70;10.00;;;18.30;99.90;;;;;;10299859;28;20550;-84
2022/07/05 03:06:47;;;;;;;13.25;9.85;;;18.40;99.90;;;;;;10317227;28;20033;-82
2022/07/05 03:11:48;;;;;;;16.42;9.95;;;18.50;99.90;;;;;;10317346;28;20030;-83
2022/07/05 03:16:48;;;;;;;10.77;9.40;;;18.50;99.90;;;;;;10302387;28;20033;-82
2022/07/05 03:21:49;;;;;;;11.75;10.00;;;18.60;99.90;;;;;;10308828;28;20141;-82
2022/07/05 03:26:51;;;;;;;9.73;8.73;;;18.60;99.90;;;;;;10292887;28;20046;-82
2022/07/05 03:31:51;;;;;;;10.65;9.55;;;18.70;99.90;;;;;;10306186;28;20037;-82
2022/07/05 03:36:52;;;;;;;13.88;10.13;;;18.70;99.90;;;;;;10296281;28;20031;-84
2022/07/05 03:41:53;;;;;;;11.38;9.23;;;18.60;99.90;;;;;;10307495;28;20038;-83
2022/07/05 03:46:53;;;;;;;11.85;10.13;;;18.60;99.90;;;;;;10305696;28;20121;-83
2022/07/05 03:51:54;;;;;;;11.35;10.25;;;18.40;99.90;;;;;;10302913;28;20049;-82
2022/07/05 03:56:54;;;;;;;13.00;11.57;;;18.40;99.90;;;;;;10314816;28;20698;-84
2022/07/05 04:01:55;;;;;;;14.50;12.95;;;18.40;99.90;;;;;;10300541;28;20124;-82
2022/07/05 04:06:56;;;;;;;16.73;14.07;;;18.20;99.90;;;;;;10303539;28;20501;-81
2022/07/05 04:11:56;;;;;;;17.80;14.73;;;18.10;99.90;;;;;;10304163;28;20035;-81
2022/07/05 04:16:57;;;;;;;17.95;16.00;;;18.10;99.90;;;;;;10310525;28;20449;-83
2022/07/05 04:21:57;;;;;;;16.90;15.10;;;18.10;99.90;;;;;;10288923;28;20053;-82
2022/07/05 04:26:58;;;;;;;15.05;12.98;;;18.10;99.90;;;;;;10292871;28;20035;-82
2022/07/05 04:31:59;;;;;;;16.80;14.95;;;18.10;99.90;;;;;;10291950;28;20026;-82
2022/07/05 04:36:59;;;;;;;17.73;14.45;;;18.10;99.90;;;;;;10309629;28;20066;-84
2022/07/05 04:42:00;;;;;;;13.48;11.27;;;18.00;99.90;;;;;;10312642;28;20113;-82
2022/07/05 04:47:00;;;;;;;17.60;15.10;;;18.00;99.90;;;;;;10324816;28;20033;-84
2022/07/05 04:52:01;;;;;;;21.02;16.23;;;18.10;99.90;;;;;;10320989;28;20745;-84
2022/07/05 04:57:01;;;;;;;19.50;15.07;;;18.30;99.90;;;;;;10324007;28;20042;-92
2022/07/05 05:02:02;;;;;;;21.70;18.08;;;18.20;99.90;;;;;;10309338;28;20042;-82
2022/07/05 05:07:03;;;;;;;30.45;24.85;;;18.20;99.90;;;;;;10316945;28;20038;-82
2022/07/05 05:12:04;;;;;;;27.25;24.33;;;18.30;99.90;;;;;;10316788;28;20387;-82
2022/07/05 05:17:05;;;;;;;26.10;21.58;;;18.50;99.90;;;;;;10304481;28;20033;-83
2022/07/05 05:22:05;;;;;;;28.25;21.45;;;18.50;99.90;;;;;;10295256;28;20051;-83
2022/07/05 05:27:06;;;;;;;20.85;16.98;;;18.70;99.90;;;;;;10304002;28;20641;-83
2022/07/05 05:32:07;;;;;;;23.83;17.90;;;18.70;99.90;;;;;;10322045;28;20034;-83
2022/07/05 05:37:08;;;;;;;20.05;16.65;;;18.80;99.90;;;;;;10311253;28;20050;-83
2022/07/05 05:42:08;;;;;;;23.48;17.42;;;18.80;99.90;;;;;;10315894;28;20157;-83
2022/07/05 05:47:09;;;;;;;24.65;20.02;;;18.90;99.90;;;;;;10311040;28;20104;-84
2022/07/05 05:52:09;;;;;;;23.40;17.92;;;18.90;99.90;;;;;;10301852;28;20041;-83
2022/07/05 05:57:10;;;;;;;21.55;17.20;;;18.90;99.90;;;;;;10305428;28;20483;-83
2022/07/05 06:02:10;;;;;;;24.27;18.83;;;19.00;99.90;;;;;;10317156;28;20065;-83
2022/07/05 06:07:11;;;;;;;27.98;18.88;;;19.00;99.90;;;;;;10305765;28;20054;-83
2022/07/05 06:12:12;;;;;;;27.92;21.30;;;19.10;99.90;;;;;;10298187;28;20694;-82
2022/07/05 06:17:12;;;;;;;22.02;19.05;;;19.20;99.90;;;;;;10315066;28;20521;-83
2022/07/05 06:22:13;;;;;;;24.13;19.98;;;19.30;99.90;;;;;;10305537;28;20736;-84
2022/07/05 06:27:13;;;;;;;22.45;18.95;;;19.50;99.90;;;;;;10299407;28;20037;-85
2022/07/05 06:32:14;;;;;;;28.90;21.60;;;19.60;99.90;;;;;;10307968;28;20031;-84
2022/07/05 06:37:15;;;;;;;28.92;20.38;;;19.70;99.90;;;;;;10307908;28;20022;-84
2022/07/05 06:42:16;;;;;;;27.63;21.90;;;19.70;99.90;;;;;;10315730;28;20042;-86
2022/07/05 06:47:16;;;;;;;32.28;24.48;;;19.70;99.90;;;;;;10313644;28;20573;-86
2022/07/05 06:52:17;;;;;;;32.08;23.75;;;19.70;99.90;;;;;;10300540;28;20578;-84
2022/07/05 06:57:22;;;;;;;25.48;19.67;;;19.70;99.90;;;;;;10314770;28;20038;-86
2022/07/05 07:02:22;;;;;;;28.17;18.10;;;19.70;99.90;;;;;;10313823;28;20040;-83
2022/07/05 07:12:42;;;;;;;23.75;18.60;;;19.60;99.90;;;;;;10305992;28;20038;-82
2022/07/05 07:17:43;;;;;;;25.95;21.35;;;19.50;99.90;;;;;;10300772;28;20038;-86
2022/07/05 07:22:43;;;;;;;31.60;20.10;;;19.40;99.90;;;;;;10301456;28;20147;-84
2022/07/05 07:27:46;;;;;;;26.92;22.92;;;19.40;99.90;;;;;;10295994;28;20057;-83
2022/07/05 07:32:47;;;;;;;28.42;23.75;;;19.50;99.90;;;;;;10304579;28;20129;-83
2022/07/05 07:44:19;;;;;;;28.92;18.88;;;19.60;99.90;;;;;;10261374;28;20055;-85
2022/07/05 07:49:20;;;;;;;26.55;22.45;;;19.70;99.90;;;;;;10306430;28;20082;-86
2022/07/05 07:54:21;;;;;;;29.20;22.38;;;19.70;99.90;;;;;;10298898;28;20038;-83
2022/07/05 07:59:21;;;;;;;29.88;20.75;;;19.70;99.90;;;;;;10302810;28;20026;-85
2022/07/05 08:04:22;;;;;;;26.48;21.27;;;19.70;99.90;;;;;;10304756;28;20102;-85
2022/07/05 08:09:22;;;;;;;30.20;21.25;;;19.60;99.90;;;;;;10302752;28;20034;-84
2022/07/05 08:14:26;;;;;;;30.33;25.13;;;19.50;99.90;;;;;;10319248;28;20031;-82
2022/07/05 08:24:46;;;;;;;31.17;25.17;;;19.40;99.90;;;;;;10315836;28;20054;-83
2022/07/05 08:29:47;;;;;;;30.10;25.48;;;19.30;99.90;;;;;;10325195;28;20553;-84
2022/07/05 08:34:48;;;;;;;32.40;25.45;;;19.30;99.90;;;;;;10318308;28;20030;-83
2022/07/05 08:39:49;;;;;;;26.95;23.08;;;19.40;99.90;;;;;;10322304;28;20118;-83
2022/07/05 08:44:50;;;;;;;24.88;19.27;;;19.40;99.90;;;;;;10308880;28;20018;-84
2022/07/05 08:49:52;;;;;;;27.50;22.40;;;19.50;99.90;;;;;;10315414;28;20019;-84
2022/07/05 08:54:54;;;;;;;30.27;23.80;;;19.50;99.90;;;;;;10326736;28;20026;-83
2022/07/05 08:59:55;;;;;;;27.27;22.35;;;19.50;99.90;;;;;;10308865;28;20038;-85
2022/07/05 09:04:56;;;;;;;32.20;26.50;;;19.60;99.90;;;;;;10304135;28;20578;-83
2022/07/05 09:10:01;;;;;;;27.77;24.38;;;19.60;99.90;;;;;;10306298;28;20042;-85
2022/07/05 09:15:02;;;;;;;32.13;26.07;;;19.60;99.90;;;;;;10303735;28;20526;-85
2022/07/05 09:20:17;;;;;;;28.70;23.77;;;19.60;99.90;;;;;;10309014;28;20050;-83
2022/07/05 09:25:27;;;;;;;27.60;21.73;;;19.80;99.90;;;;;;10307472;28;20138;-87
2022/07/05 09:30:37;;;;;;;22.60;19.90;;;19.80;99.90;;;;;;10297817;28;20270;-83
2022/07/05 09:35:43;;;;;;;32.08;24.63;;;19.80;99.90;;;;;;10304734;28;20703;-83
2022/07/05 09:40:49;;;;;;;28.30;20.85;;;19.80;99.90;;;;;;10302132;28;20498;-83
2022/07/05 09:45:57;;;;;;;20.73;17.85;;;19.90;99.90;;;;;;10305689;28;20115;-83
2022/07/05 09:51:12;;;;;;;21.85;19.15;;;20.00;99.90;;;;;;10314579;28;20026;-83
2022/07/05 09:56:13;;;;;;;23.05;20.15;;;20.10;99.90;;;;;;10293226;28;20098;-86
2022/07/05 10:01:27;;;;;;;19.80;17.25;;;20.10;99.90;;;;;;10315945;28;20126;-83
2022/07/05 10:06:29;;;;;;;22.92;17.38;;;20.20;99.90;;;;;;10316614;28;20027;-85
2022/07/05 10:11:31;;;;;;;21.55;17.10;;;20.30;99.90;;;;;;10305794;28;20038;-86
2022/07/05 10:16:32;;;;;;;23.27;19.67;;;20.20;99.90;;;;;;10292791;28;20397;-83
2022/07/05 10:21:32;;;;;;;16.20;11.90;;;20.20;99.90;;;;;;10309074;28;20060;-84
2022/07/05 10:26:33;;;;;;;14.38;11.85;;;20.10;99.90;;;;;;10305274;28;20081;-85
2022/07/05 10:31:35;;;;;;;13.82;11.27;;;20.00;99.90;;;;;;10289132;28;20035;-83
2022/07/05 10:36:37;;;;;;;18.45;12.90;;;20.00;99.90;;;;;;10292288;28;20105;-83
2022/07/05 10:41:40;;;;;;;25.60;19.80;;;20.10;99.90;;;;;;10294895;28;20617;-84
2022/07/05 10:46:43;;;;;;;14.38;12.32;;;20.20;99.90;;;;;;10295777;28;20039;-83
2022/07/05 10:51:43;;;;;;;16.90;13.40;;;20.30;99.90;;;;;;10304116;28;20023;-84
2022/07/05 10:57:26;;;;;;;18.80;15.18;;;20.30;99.90;;;;;;10296653;28;20073;-83
2022/07/05 11:02:26;;;;;;;19.38;15.80;;;20.30;99.90;;;;;;10293432;28;20035;-87
2022/07/05 11:08:04;;;;;;;18.70;15.63;;;20.30;99.90;;;;;;10294891;28;20038;-83
2022/07/05 11:13:43;;;;;;;19.95;16.85;;;20.30;99.90;;;;;;10301212;28;20087;-85
2022/07/05 11:18:44;;;;;;;20.48;15.45;;;20.20;99.90;;;;;;10300458;28;20034;-84
2022/07/05 11:23:44;;;;;;;21.33;16.95;;;20.20;99.90;;;;;;10297509;28;20050;-88
2022/07/05 11:28:47;;;;;;;20.73;16.45;;;20.20;99.90;;;;;;10288414;28;20023;-87
2022/07/05 11:33:50;;;;;;;15.45;12.20;;;20.30;99.90;;;;;;10289479;28;20418;-83
2022/07/05 11:39:12;;;;;;;15.60;13.68;;;20.30;99.90;;;;;;10291118;28;20022;-82
2022/07/05 11:44:14;;;;;;;17.67;14.88;;;20.20;99.90;;;;;;10297055;28;20023;-85
2022/07/05 11:49:23;;;;;;;20.95;17.63;;;20.30;99.90;;;;;;10295786;28;20058;-84
2022/07/05 11:54:29;;;;;;;28.35;23.08;;;20.10;99.90;;;;;;10314571;28;20042;-83
2022/07/05 11:59:29;;;;;;;20.67;16.65;;;20.10;99.90;;;;;;10292935;28;20054;-85
2022/07/05 12:04:31;;;;;;;24.38;17.98;;;20.10;99.90;;;;;;10289313;28;20038;-83
2022/07/05 12:14:52;;;;;;;29.50;22.63;;;19.90;99.90;;;;;;10284746;28;20030;-83
2022/07/05 12:19:54;;;;;;;32.63;25.70;;;19.80;99.90;;;;;;10306422;28;20027;-83
2022/07/05 12:24:57;;;;;;;31.70;23.30;;;19.90;99.90;;;;;;10298749;28;20411;-84
2022/07/05 12:29:59;;;;;;;36.40;25.88;;;19.90;99.90;;;;;;10291710;28;20034;-88
2022/07/05 12:35:02;;;;;;;29.23;22.25;;;20.00;99.90;;;;;;10300503;28;20034;-84
2022/07/05 12:40:09;;;;;;;40.83;27.55;;;19.90;99.90;;;;;;10301318;28;20027;-84
2022/07/05 12:45:16;;;;;;;28.98;21.77;;;19.90;99.90;;;;;;10300961;28;20018;-84
2022/07/05 12:50:17;;;;;;;31.48;22.25;;;19.80;99.90;;;;;;10306284;28;20092;-85
2022/07/05 13:00:37;;;;;;;38.83;28.77;;;19.70;99.90;;;;;;10311775;28;20046;-84
2022/07/05 13:05:38;;;;;;;49.10;33.38;;;19.60;99.90;;;;;;10314619;28;20042;-84
2022/07/05 13:10:46;;;;;;;40.08;28.52;;;19.50;99.90;;;;;;10316786;28;20026;-82
2022/07/05 13:15:47;;;;;;;43.88;29.27;;;19.40;99.90;;;;;;10321271;28;20030;-83
2022/07/05 13:20:49;;;;;;;38.50;27.33;;;19.20;99.90;;;;;;10309356;28;20443;-83
2022/07/05 13:25:50;;;;;;;37.20;26.35;;;19.10;99.90;;;;;;10324066;28;20015;-83
2022/07/05 13:30:51;;;;;;;28.60;19.90;;;19.10;99.90;;;;;;10324540;28;20018;-85
2022/07/05 13:35:52;;;;;;;47.58;30.20;;;19.10;99.90;;;;;;10322262;28;20790;-83
2022/07/05 13:40:52;;;;;;;43.20;27.90;;;19.00;99.90;;;;;;10314658;28;20038;-83
2022/07/05 13:45:53;;;;;;;37.45;24.83;;;19.00;99.90;;;;;;10318320;28;20482;-86
2022/07/05 13:50:54;;;;;;;23.33;15.45;;;18.90;99.90;;;;;;10314415;28;20542;-84
2022/07/05 13:55:54;;;;;;;41.30;27.83;;;18.90;99.90;;;;;;10310972;28;20030;-84
2022/07/05 14:00:55;;;;;;;40.38;25.15;;;18.60;99.90;;;;;;10311596;28;20582;-85
2022/07/05 14:05:57;;;;;;;52.70;32.20;;;18.60;99.90;;;;;;10309633;28;20474;-85
2022/07/05 14:10:58;;;;;;;41.50;27.10;;;18.70;99.90;;;;;;10319124;28;20689;-84
2022/07/05 14:15:58;;;;;;;28.60;18.63;;;18.70;99.90;;;;;;10317148;28;20868;-83
2022/07/05 14:21:00;;;;;;;40.70;25.92;;;18.70;99.90;;;;;;10314221;28;20054;-82
2022/07/05 14:26:03;;;;;;;31.38;22.88;;;18.60;99.90;;;;;;10315536;28;20027;-86
2022/07/05 14:31:04;;;;;;;40.58;27.77;;;18.50;99.90;;;;;;10319074;28;20475;-87
2022/07/05 14:36:05;;;;;;;37.72;26.55;;;18.50;99.90;;;;;;10305912;28;20117;-85
2022/07/05 14:41:06;;;;;;;15.18;13.20;;;18.60;99.90;;;;;;10297166;28;20034;-81
2022/07/05 14:46:07;;;;;;;22.50;17.77;;;18.60;99.90;;;;;;10303742;28;20031;-82
2022/07/05 14:51:09;;;;;;;19.25;14.60;;;18.40;99.90;;;;;;10311776;28;20410;-83
2022/07/05 14:56:10;;;;;;;25.85;18.80;;;18.20;99.90;;;;;;10301948;28;20034;-88
2022/07/05 15:01:11;;;;;;;21.63;17.77;;;18.10;99.90;;;;;;10311079;28;20050;-82
2022/07/05 15:06:12;;;;;;;27.50;21.40;;;18.00;99.90;;;;;;10305342;28;20237;-82
2022/07/05 15:11:14;;;;;;;25.63;22.48;;;18.00;99.90;;;;;;10307173;28;20027;-82
2022/07/05 15:16:14;;;;;;;35.65;25.92;;;18.00;99.90;;;;;;10307115;28;20418;-84
2022/07/05 15:21:15;;;;;;;38.10;26.05;;;18.10;99.90;;;;;;10305310;28;20051;-90
2022/07/05 15:26:15;;;;;;;51.22;32.90;;;18.10;99.90;;;;;;10294819;28;20049;-84
2022/07/05 15:31:16;;;;;;;29.55;22.85;;;18.20;99.90;;;;;;10295168;28;20648;-84
2022/07/05 15:36:16;;;;;;;32.55;24.48;;;18.30;99.90;;;;;;10308887;28;20011;-83
2022/07/05 15:41:18;;;;;;;26.65;20.48;;;18.30;99.90;;;;;;10314528;28;20038;-82
2022/07/05 15:46:20;;;;;;;37.40;26.60;;;18.40;99.90;;;;;;10298902;28;20668;-84
2022/07/05 15:51:20;;;;;;;26.50;20.73;;;18.40;99.90;;;;;;10301168;28;20033;-84
2022/07/05 15:56:21;;;;;;;27.30;21.38;;;18.20;99.90;;;;;;10308940;28;20030;-82
2022/07/05 16:01:22;;;;;;;30.67;22.08;;;18.10;99.90;;;;;;10299011;28;20755;-82
2022/07/05 16:06:23;;;;;;;30.40;24.55;;;18.10;99.90;;;;;;10308747;28;20061;-82
2022/07/05 16:11:24;;;;;;;49.28;31.42;;;18.00;99.90;;;;;;10301432;28;20463;-81
2022/07/05 16:16:25;;;;;;;45.80;29.75;;;18.10;99.90;;;;;;10303257;28;20406;-81
2022/07/05 16:21:27;;;;;;;24.05;19.35;;;18.10;99.90;;;;;;10307571;28;20054;-81
2022/07/05 16:26:27;;;;;;;28.60;21.58;;;18.10;99.90;;;;;;10440186;23;20089;-82
2022/07/05 16:31:28;;;;;;;24.52;19.77;;;17.90;99.90;;;;;;10416568;28;20140;-81
2022/07/05 16:36:29;;;;;;;44.50;27.98;;;17.80;99.90;;;;;;10430992;28;20029;-81
2022/07/05 16:41:30;;;;;;;46.63;30.27;;;17.70;99.90;;;;;;10421333;28;20503;-81
2022/07/05 16:46:32;;;;;;;50.35;31.45;;;17.70;99.90;;;;;;10432630;28;20218;-80
2022/07/05 16:51:32;;;;;;;57.28;32.83;;;17.80;99.90;;;;;;10458278;28;20025;-81
2022/07/05 16:56:33;;;;;;;57.38;33.33;;;17.80;99.90;;;;;;10417644;28;20068;-81
2022/07/05 17:01:33;;;;;;;49.13;30.30;;;17.80;99.90;;;;;;10428172;28;20053;-83
2022/07/05 17:06:34;;;;;;;50.83;32.28;;;17.90;99.90;;;;;;10435420;28;20037;-82
2022/07/05 17:11:34;;;;;;;61.45;36.45;;;17.80;99.90;;;;;;10428296;28;20025;-81
2022/07/05 17:16:35;;;;;;;91.82;43.35;;;17.90;99.90;;;;;;10425088;28;20087;-82
2022/07/05 17:21:37;;;;;;;78.47;41.75;;;18.00;99.90;;;;;;10430136;28;20111;-82
2022/07/05 17:26:38;;;;;;;51.30;35.15;;;18.00;99.90;;;;;;10422876;28;20076;-83
2022/07/05 17:31:39;;;;;;;53.15;32.85;;;18.00;99.90;;;;;;10419967;28;20187;-83
2022/07/05 17:36:40;;;;;;;57.63;33.90;;;18.00;99.90;;;;;;10430820;28;20112;-82
2022/07/05 17:41:40;;;;;;;41.63;29.70;;;18.00;99.90;;;;;;10422820;28;20037;-82
2022/07/05 17:46:41;;;;;;;53.08;33.05;;;17.90;99.90;;;;;;10414835;28;20028;-82
2022/07/05 17:51:45;;;;;;;42.72;30.10;;;17.90;99.90;;;;;;10424870;28;20526;-82
2022/07/05 17:56:46;;;;;;;121.47;50.78;;;17.80;99.90;;;;;;10422773;28;20040;-84
2022/07/05 18:01:46;;;;;;;53.72;34.78;;;17.80;99.90;;;;;;10419831;28;20554;-83
2022/07/05 18:06:47;;;;;;;59.97;37.13;;;17.80;99.90;;;;;;10438617;28;20039;-81
2022/07/05 18:11:47;;;;;;;38.35;28.92;;;17.80;99.90;;;;;;10423104;28;20049;-82
2022/07/05 18:16:48;;;;;;;54.22;34.28;;;17.70;99.90;;;;;;10418769;28;20021;-81
2022/07/05 18:21:49;;;;;;;58.47;36.67;;;17.70;99.90;;;;;;10427722;28;20124;-82
2022/07/05 18:26:51;;;;;;;97.93;45.75;;;17.70;99.90;;;;;;10416816;28;20034;-82
2022/07/05 18:31:55;;;;;;;156.45;58.53;;;17.60;99.90;;;;;;10425975;28;20021;-83
2022/07/05 18:36:56;;;;;;;134.38;56.42;;;17.60;99.90;;;;;;10428759;28;20029;-81
2022/07/05 18:41:57;;;;;;;63.95;39.08;;;17.60;99.90;;;;;;10423616;28;20049;-81
2022/07/05 18:47:01;;;;;;;96.25;46.25;;;17.70;99.90;;;;;;10416276;28;20029;-81
2022/07/05 18:52:02;;;;;;;78.80;43.15;;;17.70;99.90;;;;;;10425214;28;20152;-80
2022/07/05 18:57:04;;;;;;;85.95;44.42;;;17.60;99.90;;;;;;10424970;28;20035;-82
2022/07/05 19:02:06;;;;;;;102.30;48.60;;;17.70;99.90;;;;;;10428294;28;20037;-83
2022/07/05 19:17:48;;;;;;;134.85;57.80;;;17.60;99.90;;;;;;10415712;28;20041;-83
2022/07/05 19:22:52;;;;;;;121.38;54.50;;;17.50;99.90;;;;;;10423410;28;20065;-85
2022/07/05 19:27:53;;;;;;;83.47;46.70;;;17.50;99.90;;;;;;10407519;28;20029;-85
2022/07/05 19:32:53;;;;;;;61.22;40.70;;;17.60;99.90;;;;;;10419513;28;20111;-84
2022/07/05 19:37:55;;;;;;;81.50;45.97;;;17.50;99.90;;;;;;10429428;28;20071;-83
2022/07/05 19:42:56;;;;;;;135.38;60.17;;;17.60;99.90;;;;;;10420993;28;20106;-83
2022/07/05 19:47:56;;;;;;;99.03;49.35;;;17.50;99.90;;;;;;10413746;28;20037;-82
2022/07/05 19:52:57;;;;;;;101.05;50.00;;;17.50;99.90;;;;;;10417600;28;20040;-83
2022/07/05 19:57:58;;;;;;;70.22;43.70;;;17.50;99.90;;;;;;10419307;28;20461;-83
2022/07/05 20:02:59;;;;;;;109.80;53.65;;;17.50;99.90;;;;;;10407893;28;20049;-83
2022/07/05 20:07:59;;;;;;;75.40;43.65;;;17.50;99.90;;;;;;10419029;28;20053;-83
2022/07/05 20:19:00;;;;;;;96.30;49.65;;;17.50;99.90;;;;;;10414817;28;20030;-83
2022/07/05 20:24:02;;;;;;;81.78;47.35;;;17.50;99.90;;;;;;10406905;28;20066;-84
2022/07/05 20:29:03;;;;;;;93.18;47.63;;;17.60;99.90;;;;;;10417811;28;20107;-84
2022/07/05 20:34:06;;;;;;;92.93;49.38;;;17.60;99.90;;;;;;10408088;28;20098;-84
2022/07/05 20:39:07;;;;;;;141.00;60.13;;;17.70;99.90;;;;;;10418555;28;20139;-84
2022/07/05 20:44:08;;;;;;;162.57;63.15;;;17.60;99.90;;;;;;10411662;28;20689;-84
2022/07/05 20:49:09;;;;;;;117.35;55.03;;;17.60;99.90;;;;;;10421515;28;20076;-84
2022/07/05 20:54:10;;;;;;;129.75;55.72;;;17.60;99.90;;;;;;10422735;28;20596;-84
2022/07/05 20:59:10;;;;;;;131.35;56.78;;;17.70;99.90;;;;;;10423108;28;20473;-83
2022/07/05 21:04:11;;;;;;;117.38;54.20;;;17.60;99.90;;;;;;10424412;28;20013;-84
2022/07/05 21:09:12;;;;;;;73.25;43.33;;;17.60;99.90;;;;;;10412572;28;20026;-84
2022/07/05 21:14:12;;;;;;;82.68;45.58;;;17.60;99.90;;;;;;10414724;28;20459;-83
2022/07/05 21:19:13;;;;;;;79.70;43.88;;;17.50;99.90;;;;;;10425211;28;20028;-83
2022/07/05 21:24:15;;;;;;;104.15;48.80;;;17.50;99.90;;;;;;10427096;28;20079;-85
2022/07/05 21:29:16;;;;;;;75.53;42.55;;;17.50;99.90;;;;;;10438732;28;20021;-85
2022/07/05 21:34:17;;;;;;;78.60;43.95;;;17.50;99.90;;;;;;10432294;28;20029;-84
2022/07/05 21:39:21;;;;;;;86.40;46.92;;;17.50;99.90;;;;;;10426120;28;20500;-84
2022/07/05 21:44:21;;;;;;;71.85;42.50;;;17.50;99.90;;;;;;10431294;28;20041;-85
2022/07/05 21:49:22;;;;;;;87.72;44.25;;;17.50;99.90;;;;;;10432549;28;20025;-85
2022/07/05 21:54:22;;;;;;;102.80;50.67;;;17.50;99.90;;;;;;10432889;28;20036;-84
2022/07/05 22:04:43;;;;;;;169.45;65.20;;;17.50;99.90;;;;;;10428746;28;20045;-84
2022/07/05 22:09:44;;;;;;;122.25;53.33;;;17.50;99.90;;;;;;10424730;28;20379;-85
2022/07/05 22:14:45;;;;;;;110.68;52.78;;;17.50;99.90;;;;;;10418646;28;20025;-84
2022/07/05 22:19:46;;;;;;;139.32;59.13;;;17.50;99.90;;;;;;10427400;28;20524;-84
2022/07/05 22:24:46;;;;;;;124.75;58.10;;;17.50;99.90;;;;;;10424733;28;20053;-87
2022/07/05 22:29:47;;;;;;;140.43;59.65;;;17.50;99.90;;;;;;10429406;28;20079;-85
2022/07/05 22:34:48;;;;;;;140.48;61.38;;;17.40;99.90;;;;;;10415915;28;20580;-86
2022/07/05 22:39:48;;;;;;;154.18;61.78;;;17.30;99.90;;;;;;10427855;28;20570;-85
2022/07/05 22:44:49;;;;;;;185.77;63.65;;;17.20;99.90;;;;;;10426594;28;20385;-85
2022/07/05 22:49:49;;;;;;;154.68;56.33;;;17.20;99.90;;;;;;10415836;28;20026;-86
2022/07/05 22:54:50;;;;;;;165.32;56.50;;;17.10;99.90;;;;;;10419947;28;20021;-85
2022/07/05 22:59:50;;;;;;;168.60;56.88;;;17.10;99.90;;;;;;10428989;28;20578;-85
2022/07/05 23:04:51;;;;;;;135.77;50.80;;;17.00;99.90;;;;;;10419174;28;20079;-85
2022/07/05 23:09:52;;;;;;;202.65;63.72;;;16.90;99.90;;;;;;10421516;28;20590;-86
2022/07/05 23:14:52;;;;;;;265.42;71.60;;;16.80;99.90;;;;;;10412857;28;20385;-86
2022/07/05 23:19:53;;;;;;;289.60;77.40;;;16.70;99.90;;;;;;10429264;28;20036;-84
2022/07/05 23:24:56;;;;;;;331.23;80.25;;;16.70;99.90;;;;;;10429921;28;20053;-86
2022/07/05 23:29:58;;;;;;;257.48;72.70;;;16.60;99.90;;;;;;10419308;28;20429;-86
2022/07/05 23:34:58;;;;;;;198.85;63.03;;;16.60;99.90;;;;;;10415751;28;20031;-86
2022/07/05 23:39:59;;;;;;;283.23;75.47;;;16.60;99.90;;;;;;10414327;28;20474;-85
2022/07/05 23:44:59;;;;;;;301.30;78.82;;;16.60;99.90;;;;;;10406350;28;20120;-86
2022/07/05 23:50:00;;;;;;;246.68;72.65;;;16.60;99.90;;;;;;10420861;28;20032;-85
2022/07/05 23:55:01;;;;;;;224.68;69.35;;;16.60;99.90;;;;;;10419510;28;20033;-85
